sensor_id;sensor_type;location;lat;lon;timestamp;P1;durP1;ratioP1;P2;durP2;ratioP2
23714;SDS011;12036;50.858;4.472;2023-02-24T00:00:05;20.73;;;3.58;;
23714;SDS011;12036;50.858;4.472;2023-02-24T00:02:52;18.98;;;3.58;;
23714;SDS011;12036;50.858;4.472;2023-02-24T00:05:17;25.52;;;3.38;;
23714;SDS011;12036;50.858;4.472;2023-02-24T00:07:43;24.40;;;3.80;;
23714;SDS011;12036;50.858;4.472;2023-02-24T00:10:09;16.58;;;3.38;;
23714;SDS011;12036;50.858;4.472;2023-02-24T00:12:35;27.25;;;3.45;;
23714;SDS011;12036;50.858;4.472;2023-02-24T00:15:01;18.33;;;2.92;;
23714;SDS011;12036;50.858;4.472;2023-02-24T00:17:28;26.77;;;3.03;;
23714;SDS011;12036;50.858;4.472;2023-02-24T00:19:54;24.92;;;3.53;;
23714;SDS011;12036;50.858;4.472;2023-02-24T00:22:21;22.10;;;2.97;;
23714;SDS011;12036;50.858;4.472;2023-02-24T00:24:47;27.75;;;3.10;;
23714;SDS011;12036;50.858;4.472;2023-02-24T00:27:12;25.60;;;3.15;;
23714;SDS011;12036;50.858;4.472;2023-02-24T00:29:38;23.65;;;3.17;;
23714;SDS011;12036;50.858;4.472;2023-02-24T00:32:05;27.17;;;3.15;;
23714;SDS011;12036;50.858;4.472;2023-02-24T00:34:36;14.98;;;2.67;;
23714;SDS011;12036;50.858;4.472;2023-02-24T00:37:02;23.05;;;3.17;;
23714;SDS011;12036;50.858;4.472;2023-02-24T00:39:31;16.58;;;3.03;;
23714;SDS011;12036;50.858;4.472;2023-02-24T00:41:59;30.30;;;3.75;;
23714;SDS011;12036;50.858;4.472;2023-02-24T00:44:33;25.70;;;3.28;;
23714;SDS011;12036;50.858;4.472;2023-02-24T00:47:00;14.50;;;3.10;;
23714;SDS011;12036;50.858;4.472;2023-02-24T00:49:29;22.98;;;3.45;;
23714;SDS011;12036;50.858;4.472;2023-02-24T00:51:56;21.10;;;3.22;;
23714;SDS011;12036;50.858;4.472;2023-02-24T00:54:22;18.98;;;2.85;;
23714;SDS011;12036;50.858;4.472;2023-02-24T00:56:52;28.60;;;3.63;;
23714;SDS011;12036;50.858;4.472;2023-02-24T00:59:18;21.77;;;3.35;;
23714;SDS011;12036;50.858;4.472;2023-02-24T01:01:45;25.13;;;3.17;;
23714;SDS011;12036;50.858;4.472;2023-02-24T01:04:13;22.63;;;3.35;;
23714;SDS011;12036;50.858;4.472;2023-02-24T01:06:40;20.27;;;3.17;;
23714;SDS011;12036;50.858;4.472;2023-02-24T01:09:10;21.98;;;3.28;;
23714;SDS011;12036;50.858;4.472;2023-02-24T01:11:37;20.48;;;3.35;;
23714;SDS011;12036;50.858;4.472;2023-02-24T01:14:24;20.65;;;3.40;;
23714;SDS011;12036;50.858;4.472;2023-02-24T01:16:53;23.85;;;3.15;;
23714;SDS011;12036;50.858;4.472;2023-02-24T01:19:21;25.05;;;3.83;;
23714;SDS011;12036;50.858;4.472;2023-02-24T01:21:48;20.13;;;3.17;;
23714;SDS011;12036;50.858;4.472;2023-02-24T01:24:20;20.65;;;3.17;;
23714;SDS011;12036;50.858;4.472;2023-02-24T01:26:48;28.60;;;3.13;;
23714;SDS011;12036;50.858;4.472;2023-02-24T01:29:13;24.90;;;3.60;;
23714;SDS011;12036;50.858;4.472;2023-02-24T01:31:39;15.13;;;3.83;;
23714;SDS011;12036;50.858;4.472;2023-02-24T01:34:10;24.70;;;3.90;;
23714;SDS011;12036;50.858;4.472;2023-02-24T01:36:37;24.83;;;3.50;;
23714;SDS011;12036;50.858;4.472;2023-02-24T01:39:04;35.13;;;3.65;;
23714;SDS011;12036;50.858;4.472;2023-02-24T01:41:35;21.65;;;4.18;;
23714;SDS011;12036;50.858;4.472;2023-02-24T01:44:06;15.63;;;3.95;;
23714;SDS011;12036;50.858;4.472;2023-02-24T01:46:53;16.98;;;3.08;;
23714;SDS011;12036;50.858;4.472;2023-02-24T01:51:59;30.70;;;3.90;;
23714;SDS011;12036;50.858;4.472;2023-02-24T01:54:31;32.05;;;4.38;;
23714;SDS011;12036;50.858;4.472;2023-02-24T01:57:04;28.20;;;3.55;;
23714;SDS011;12036;50.858;4.472;2023-02-24T01:59:32;20.08;;;3.28;;
23714;SDS011;12036;50.858;4.472;2023-02-24T02:01:59;21.50;;;3.47;;
23714;SDS011;12036;50.858;4.472;2023-02-24T02:04:45;20.75;;;2.88;;
23714;SDS011;12036;50.858;4.472;2023-02-24T02:07:19;17.52;;;2.97;;
23714;SDS011;12036;50.858;4.472;2023-02-24T02:09:46;26.13;;;3.60;;
23714;SDS011;12036;50.858;4.472;2023-02-24T02:12:13;16.75;;;3.00;;
23714;SDS011;12036;50.858;4.472;2023-02-24T02:14:43;20.75;;;3.40;;
23714;SDS011;12036;50.858;4.472;2023-02-24T02:24:56;21.50;;;3.58;;
23714;SDS011;12036;50.858;4.472;2023-02-24T02:30:02;15.60;;;2.80;;
23714;SDS011;12036;50.858;4.472;2023-02-24T02:36:16;22.95;;;2.90;;
23714;SDS011;12036;50.858;4.472;2023-02-24T02:50:40;12.07;;;2.78;;
23714;SDS011;12036;50.858;4.472;2023-02-24T02:53:03;19.95;;;2.90;;
23714;SDS011;12036;50.858;4.472;2023-02-24T02:58:05;28.43;;;3.47;;
23714;SDS011;12036;50.858;4.472;2023-02-24T03:00:38;16.10;;;3.15;;
23714;SDS011;12036;50.858;4.472;2023-02-24T03:03:14;21.00;;;3.00;;
23714;SDS011;12036;50.858;4.472;2023-02-24T03:05:43;12.15;;;2.30;;
23714;SDS011;12036;50.858;4.472;2023-02-24T03:08:14;19.02;;;2.95;;
23714;SDS011;12036;50.858;4.472;2023-02-24T03:10:45;11.68;;;3.03;;
23714;SDS011;12036;50.858;4.472;2023-02-24T03:13:16;13.23;;;2.15;;
23714;SDS011;12036;50.858;4.472;2023-02-24T03:15:46;18.02;;;2.95;;
23714;SDS011;12036;50.858;4.472;2023-02-24T03:18:15;21.80;;;2.60;;
23714;SDS011;12036;50.858;4.472;2023-02-24T03:20:46;17.15;;;2.92;;
23714;SDS011;12036;50.858;4.472;2023-02-24T03:23:17;13.93;;;2.28;;
23714;SDS011;12036;50.858;4.472;2023-02-24T03:25:53;13.30;;;2.30;;
23714;SDS011;12036;50.858;4.472;2023-02-24T03:28:35;15.00;;;2.50;;
23714;SDS011;12036;50.858;4.472;2023-02-24T03:31:08;19.77;;;2.95;;
23714;SDS011;12036;50.858;4.472;2023-02-24T03:33:44;16.95;;;2.50;;
23714;SDS011;12036;50.858;4.472;2023-02-24T03:36:24;14.98;;;2.58;;
23714;SDS011;12036;50.858;4.472;2023-02-24T03:38:51;17.70;;;3.00;;
23714;SDS011;12036;50.858;4.472;2023-02-24T03:41:17;18.85;;;3.33;;
23714;SDS011;12036;50.858;4.472;2023-02-24T03:43:43;13.75;;;2.75;;
23714;SDS011;12036;50.858;4.472;2023-02-24T03:46:12;13.60;;;3.13;;
23714;SDS011;12036;50.858;4.472;2023-02-24T03:48:41;11.88;;;2.67;;
23714;SDS011;12036;50.858;4.472;2023-02-24T03:51:18;14.10;;;3.28;;
23714;SDS011;12036;50.858;4.472;2023-02-24T04:02:44;17.48;;;2.30;;
23714;SDS011;12036;50.858;4.472;2023-02-24T04:05:31;12.57;;;2.05;;
23714;SDS011;12036;50.858;4.472;2023-02-24T04:08:01;15.18;;;2.17;;
23714;SDS011;12036;50.858;4.472;2023-02-24T04:10:36;8.95;;;2.05;;
23714;SDS011;12036;50.858;4.472;2023-02-24T04:18:55;19.13;;;2.25;;
23714;SDS011;12036;50.858;4.472;2023-02-24T04:21:27;13.43;;;2.30;;
23714;SDS011;12036;50.858;4.472;2023-02-24T04:23:55;10.55;;;2.40;;
23714;SDS011;12036;50.858;4.472;2023-02-24T04:26:24;17.90;;;2.92;;
23714;SDS011;12036;50.858;4.472;2023-02-24T04:28:51;12.00;;;2.53;;
23714;SDS011;12036;50.858;4.472;2023-02-24T04:31:19;10.00;;;2.30;;
23714;SDS011;12036;50.858;4.472;2023-02-24T04:33:46;14.43;;;2.38;;
23714;SDS011;12036;50.858;4.472;2023-02-24T04:36:15;9.10;;;1.80;;
23714;SDS011;12036;50.858;4.472;2023-02-24T04:38:44;12.30;;;2.03;;
23714;SDS011;12036;50.858;4.472;2023-02-24T04:41:13;12.57;;;3.17;;
23714;SDS011;12036;50.858;4.472;2023-02-24T04:43:45;14.98;;;2.13;;
23714;SDS011;12036;50.858;4.472;2023-02-24T04:46:12;11.40;;;2.13;;
23714;SDS011;12036;50.858;4.472;2023-02-24T04:48:38;9.60;;;2.13;;
23714;SDS011;12036;50.858;4.472;2023-02-24T04:51:04;13.43;;;2.20;;
23714;SDS011;12036;50.858;4.472;2023-02-24T04:53:30;12.23;;;2.03;;
23714;SDS011;12036;50.858;4.472;2023-02-24T04:55:56;10.45;;;2.92;;
23714;SDS011;12036;50.858;4.472;2023-02-24T04:58:32;11.80;;;2.33;;
23714;SDS011;12036;50.858;4.472;2023-02-24T05:00:58;20.50;;;2.65;;
23714;SDS011;12036;50.858;4.472;2023-02-24T05:03:24;17.88;;;2.45;;
23714;SDS011;12036;50.858;4.472;2023-02-24T05:05:55;9.88;;;2.20;;
23714;SDS011;12036;50.858;4.472;2023-02-24T05:08:24;11.13;;;2.55;;
23714;SDS011;12036;50.858;4.472;2023-02-24T05:10:51;15.82;;;2.47;;
23714;SDS011;12036;50.858;4.472;2023-02-24T05:13:18;14.82;;;2.60;;
23714;SDS011;12036;50.858;4.472;2023-02-24T05:15:46;16.27;;;3.30;;
23714;SDS011;12036;50.858;4.472;2023-02-24T05:18:14;16.60;;;2.90;;
23714;SDS011;12036;50.858;4.472;2023-02-24T05:20:56;15.43;;;2.38;;
23714;SDS011;12036;50.858;4.472;2023-02-24T05:23:46;14.43;;;2.40;;
23714;SDS011;12036;50.858;4.472;2023-02-24T05:26:13;13.07;;;2.80;;
23714;SDS011;12036;50.858;4.472;2023-02-24T05:28:41;13.25;;;2.45;;
23714;SDS011;12036;50.858;4.472;2023-02-24T05:31:10;13.43;;;2.80;;
23714;SDS011;12036;50.858;4.472;2023-02-24T05:33:39;12.93;;;2.65;;
23714;SDS011;12036;50.858;4.472;2023-02-24T05:36:07;18.77;;;2.72;;
23714;SDS011;12036;50.858;4.472;2023-02-24T05:38:36;11.05;;;2.70;;
23714;SDS011;12036;50.858;4.472;2023-02-24T05:41:36;11.55;;;2.53;;
23714;SDS011;12036;50.858;4.472;2023-02-24T05:44:00;19.00;;;2.92;;
23714;SDS011;12036;50.858;4.472;2023-02-24T05:46:32;14.77;;;3.28;;
23714;SDS011;12036;50.858;4.472;2023-02-24T05:49:00;12.68;;;2.55;;
23714;SDS011;12036;50.858;4.472;2023-02-24T05:51:29;19.23;;;2.90;;
23714;SDS011;12036;50.858;4.472;2023-02-24T05:56:30;15.88;;;2.53;;
23714;SDS011;12036;50.858;4.472;2023-02-24T05:59:00;9.90;;;2.50;;
23714;SDS011;12036;50.858;4.472;2023-02-24T06:01:27;20.73;;;3.00;;
23714;SDS011;12036;50.858;4.472;2023-02-24T06:03:54;11.43;;;2.78;;
23714;SDS011;12036;50.858;4.472;2023-02-24T06:06:29;11.85;;;2.70;;
23714;SDS011;12036;50.858;4.472;2023-02-24T06:09:04;19.08;;;2.85;;
23714;SDS011;12036;50.858;4.472;2023-02-24T06:11:35;13.25;;;2.45;;
23714;SDS011;12036;50.858;4.472;2023-02-24T06:14:02;16.75;;;2.72;;
23714;SDS011;12036;50.858;4.472;2023-02-24T06:16:31;9.07;;;2.42;;
23714;SDS011;12036;50.858;4.472;2023-02-24T06:18:58;18.83;;;4.00;;
23714;SDS011;12036;50.858;4.472;2023-02-24T06:21:24;10.60;;;2.63;;
23714;SDS011;12036;50.858;4.472;2023-02-24T06:23:53;24.35;;;3.25;;
23714;SDS011;12036;50.858;4.472;2023-02-24T06:26:25;12.90;;;3.08;;
23714;SDS011;12036;50.858;4.472;2023-02-24T06:28:54;9.43;;;2.95;;
23714;SDS011;12036;50.858;4.472;2023-02-24T06:31:24;11.10;;;2.75;;
23714;SDS011;12036;50.858;4.472;2023-02-24T06:33:50;16.75;;;3.10;;
23714;SDS011;12036;50.858;4.472;2023-02-24T06:36:20;10.00;;;2.95;;
23714;SDS011;12036;50.858;4.472;2023-02-24T06:38:46;12.88;;;3.33;;
23714;SDS011;12036;50.858;4.472;2023-02-24T06:41:13;14.50;;;3.40;;
23714;SDS011;12036;50.858;4.472;2023-02-24T06:43:40;13.02;;;2.67;;
23714;SDS011;12036;50.858;4.472;2023-02-24T06:46:08;10.05;;;2.85;;
23714;SDS011;12036;50.858;4.472;2023-02-24T06:48:35;9.35;;;3.08;;
23714;SDS011;12036;50.858;4.472;2023-02-24T06:51:11;21.73;;;3.53;;
23714;SDS011;12036;50.858;4.472;2023-02-24T06:53:39;13.00;;;3.05;;
23714;SDS011;12036;50.858;4.472;2023-02-24T06:56:09;11.32;;;3.13;;
23714;SDS011;12036;50.858;4.472;2023-02-24T06:58:39;10.98;;;2.63;;
23714;SDS011;12036;50.858;4.472;2023-02-24T07:01:13;7.90;;;2.65;;
23714;SDS011;12036;50.858;4.472;2023-02-24T07:03:41;7.60;;;2.42;;
23714;SDS011;12036;50.858;4.472;2023-02-24T07:06:27;9.52;;;2.33;;
23714;SDS011;12036;50.858;4.472;2023-02-24T07:08:54;13.55;;;2.85;;
23714;SDS011;12036;50.858;4.472;2023-02-24T07:11:21;11.98;;;3.33;;
23714;SDS011;12036;50.858;4.472;2023-02-24T07:13:47;17.60;;;3.28;;
23714;SDS011;12036;50.858;4.472;2023-02-24T07:16:17;16.95;;;3.22;;
23714;SDS011;12036;50.858;4.472;2023-02-24T07:18:51;12.20;;;2.97;;
23714;SDS011;12036;50.858;4.472;2023-02-24T07:21:22;11.45;;;2.72;;
23714;SDS011;12036;50.858;4.472;2023-02-24T07:23:49;16.52;;;2.85;;
23714;SDS011;12036;50.858;4.472;2023-02-24T07:26:20;11.30;;;2.63;;
23714;SDS011;12036;50.858;4.472;2023-02-24T07:28:48;12.25;;;2.95;;
23714;SDS011;12036;50.858;4.472;2023-02-24T07:31:16;12.95;;;2.60;;
23714;SDS011;12036;50.858;4.472;2023-02-24T07:33:44;14.63;;;3.20;;
23714;SDS011;12036;50.858;4.472;2023-02-24T07:36:14;11.57;;;2.42;;
23714;SDS011;12036;50.858;4.472;2023-02-24T07:38:47;10.75;;;2.00;;
23714;SDS011;12036;50.858;4.472;2023-02-24T07:41:17;6.90;;;2.30;;
23714;SDS011;12036;50.858;4.472;2023-02-24T07:43:46;6.65;;;2.13;;
23714;SDS011;12036;50.858;4.472;2023-02-24T07:46:16;10.25;;;2.40;;
23714;SDS011;12036;50.858;4.472;2023-02-24T07:48:44;10.80;;;2.22;;
23714;SDS011;12036;50.858;4.472;2023-02-24T07:51:14;7.22;;;1.65;;
23714;SDS011;12036;50.858;4.472;2023-02-24T07:53:41;7.60;;;2.20;;
23714;SDS011;12036;50.858;4.472;2023-02-24T07:56:08;12.88;;;1.90;;
23714;SDS011;12036;50.858;4.472;2023-02-24T07:58:40;9.50;;;1.40;;
23714;SDS011;12036;50.858;4.472;2023-02-24T08:01:08;11.40;;;1.70;;
23714;SDS011;12036;50.858;4.472;2023-02-24T08:04:05;12.25;;;1.45;;
23714;SDS011;12036;50.858;4.472;2023-02-24T08:06:33;7.85;;;1.52;;
23714;SDS011;12036;50.858;4.472;2023-02-24T08:09:08;14.30;;;2.63;;
23714;SDS011;12036;50.858;4.472;2023-02-24T08:11:42;9.80;;;1.60;;
23714;SDS011;12036;50.858;4.472;2023-02-24T08:14:27;7.85;;;1.50;;
23714;SDS011;12036;50.858;4.472;2023-02-24T08:17:05;7.85;;;1.52;;
23714;SDS011;12036;50.858;4.472;2023-02-24T08:19:32;11.70;;;1.85;;
23714;SDS011;12036;50.858;4.472;2023-02-24T08:22:03;12.20;;;1.60;;
23714;SDS011;12036;50.858;4.472;2023-02-24T08:24:53;15.75;;;1.73;;
23714;SDS011;12036;50.858;4.472;2023-02-24T08:27:22;9.32;;;1.88;;
23714;SDS011;12036;50.858;4.472;2023-02-24T08:29:50;16.92;;;2.20;;
23714;SDS011;12036;50.858;4.472;2023-02-24T08:32:34;15.90;;;1.88;;
23714;SDS011;12036;50.858;4.472;2023-02-24T08:35:06;6.45;;;1.23;;
23714;SDS011;12036;50.858;4.472;2023-02-24T08:37:39;6.95;;;1.73;;
23714;SDS011;12036;50.858;4.472;2023-02-24T08:40:11;10.40;;;1.60;;
23714;SDS011;12036;50.858;4.472;2023-02-24T08:43:14;12.60;;;1.30;;
23714;SDS011;12036;50.858;4.472;2023-02-24T08:45:55;11.88;;;1.83;;
23714;SDS011;12036;50.858;4.472;2023-02-24T08:48:47;12.27;;;1.77;;
23714;SDS011;12036;50.858;4.472;2023-02-24T08:51:27;7.45;;;1.50;;
23714;SDS011;12036;50.858;4.472;2023-02-24T08:54:32;15.15;;;1.63;;
23714;SDS011;12036;50.858;4.472;2023-02-24T08:56:56;14.98;;;1.75;;
23714;SDS011;12036;50.858;4.472;2023-02-24T08:59:32;9.90;;;1.90;;
23714;SDS011;12036;50.858;4.472;2023-02-24T09:02:05;11.43;;;1.70;;
23714;SDS011;12036;50.858;4.472;2023-02-24T09:04:42;12.50;;;1.83;;
23714;SDS011;12036;50.858;4.472;2023-02-24T09:07:15;9.35;;;1.90;;
23714;SDS011;12036;50.858;4.472;2023-02-24T09:09:47;7.35;;;1.42;;
23714;SDS011;12036;50.858;4.472;2023-02-24T09:12:13;10.52;;;1.55;;
23714;SDS011;12036;50.858;4.472;2023-02-24T09:14:48;7.50;;;1.70;;
23714;SDS011;12036;50.858;4.472;2023-02-24T09:17:23;8.57;;;1.55;;
23714;SDS011;12036;50.858;4.472;2023-02-24T09:20:18;7.82;;;1.58;;
23714;SDS011;12036;50.858;4.472;2023-02-24T09:22:52;6.78;;;1.50;;
23714;SDS011;12036;50.858;4.472;2023-02-24T09:25:24;15.52;;;1.75;;
23714;SDS011;12036;50.858;4.472;2023-02-24T09:28:12;10.93;;;1.58;;
23714;SDS011;12036;50.858;4.472;2023-02-24T09:31:02;16.05;;;2.20;;
23714;SDS011;12036;50.858;4.472;2023-02-24T09:33:32;10.68;;;1.40;;
23714;SDS011;12036;50.858;4.472;2023-02-24T09:36:04;11.20;;;1.73;;
23714;SDS011;12036;50.858;4.472;2023-02-24T09:41:47;8.82;;;1.65;;
23714;SDS011;12036;50.858;4.472;2023-02-24T09:47:04;9.15;;;1.80;;
23714;SDS011;12036;50.858;4.472;2023-02-24T09:49:55;10.82;;;1.80;;
23714;SDS011;12036;50.858;4.472;2023-02-24T09:52:26;7.22;;;1.83;;
23714;SDS011;12036;50.858;4.472;2023-02-24T10:01:30;10.13;;;1.88;;
23714;SDS011;12036;50.858;4.472;2023-02-24T10:07:10;6.40;;;2.10;;
23714;SDS011;12036;50.858;4.472;2023-02-24T10:12:52;9.77;;;2.15;;
23714;SDS011;12036;50.858;4.472;2023-02-24T10:15:54;9.00;;;2.45;;
23714;SDS011;12036;50.858;4.472;2023-02-24T10:20:56;12.18;;;2.47;;
23714;SDS011;12036;50.858;4.472;2023-02-24T10:26:29;14.52;;;2.10;;
23714;SDS011;12036;50.858;4.472;2023-02-24T10:31:47;10.18;;;2.17;;
23714;SDS011;12036;50.858;4.472;2023-02-24T10:34:22;6.88;;;1.92;;
23714;SDS011;12036;50.858;4.472;2023-02-24T10:37:11;14.85;;;2.67;;
23714;SDS011;12036;50.858;4.472;2023-02-24T10:39:43;7.43;;;2.05;;
23714;SDS011;12036;50.858;4.472;2023-02-24T10:42:20;11.93;;;2.55;;
23714;SDS011;12036;50.858;4.472;2023-02-24T10:44:48;4.47;;;1.77;;
23714;SDS011;12036;50.858;4.472;2023-02-24T10:47:18;10.63;;;2.20;;
23714;SDS011;12036;50.858;4.472;2023-02-24T10:49:56;10.10;;;2.20;;
23714;SDS011;12036;50.858;4.472;2023-02-24T10:55:00;10.68;;;2.38;;
23714;SDS011;12036;50.858;4.472;2023-02-24T10:57:51;8.15;;;2.70;;
23714;SDS011;12036;50.858;4.472;2023-02-24T11:00:24;7.10;;;1.98;;
23714;SDS011;12036;50.858;4.472;2023-02-24T11:03:15;7.55;;;2.47;;
23714;SDS011;12036;50.858;4.472;2023-02-24T11:05:49;9.45;;;2.33;;
23714;SDS011;12036;50.858;4.472;2023-02-24T11:08:33;9.00;;;2.28;;
23714;SDS011;12036;50.858;4.472;2023-02-24T11:11:22;10.70;;;2.58;;
23714;SDS011;12036;50.858;4.472;2023-02-24T11:13:57;4.53;;;2.00;;
23714;SDS011;12036;50.858;4.472;2023-02-24T11:16:51;8.57;;;2.47;;
23714;SDS011;12036;50.858;4.472;2023-02-24T11:22:14;14.93;;;2.08;;
23714;SDS011;12036;50.858;4.472;2023-02-24T11:24:44;7.47;;;2.35;;
23714;SDS011;12036;50.858;4.472;2023-02-24T11:27:11;8.13;;;2.60;;
23714;SDS011;12036;50.858;4.472;2023-02-24T11:35:53;7.88;;;2.20;;
23714;SDS011;12036;50.858;4.472;2023-02-24T11:41:02;9.85;;;2.50;;
23714;SDS011;12036;50.858;4.472;2023-02-24T11:43:34;9.13;;;2.40;;
23714;SDS011;12036;50.858;4.472;2023-02-24T11:46:14;9.07;;;2.53;;
23714;SDS011;12036;50.858;4.472;2023-02-24T11:48:50;9.45;;;2.75;;
23714;SDS011;12036;50.858;4.472;2023-02-24T11:51:28;9.63;;;2.47;;
23714;SDS011;12036;50.858;4.472;2023-02-24T11:56:31;8.40;;;2.22;;
23714;SDS011;12036;50.858;4.472;2023-02-24T11:59:20;8.55;;;2.45;;
23714;SDS011;12036;50.858;4.472;2023-02-24T12:07:21;10.82;;;2.38;;
23714;SDS011;12036;50.858;4.472;2023-02-24T12:12:26;10.20;;;2.22;;
23714;SDS011;12036;50.858;4.472;2023-02-24T12:14:56;7.72;;;2.22;;
23714;SDS011;12036;50.858;4.472;2023-02-24T12:20:19;10.25;;;2.50;;
23714;SDS011;12036;50.858;4.472;2023-02-24T12:23:12;8.68;;;2.38;;
23714;SDS011;12036;50.858;4.472;2023-02-24T12:28:37;7.60;;;2.13;;
23714;SDS011;12036;50.858;4.472;2023-02-24T12:45:38;6.60;;;2.40;;
23714;SDS011;12036;50.858;4.472;2023-02-24T12:48:12;9.07;;;2.17;;
23714;SDS011;12036;50.858;4.472;2023-02-24T12:53:47;11.95;;;3.15;;
23714;SDS011;12036;50.858;4.472;2023-02-24T12:56:41;7.50;;;2.33;;
23714;SDS011;12036;50.858;4.472;2023-02-24T12:59:19;11.00;;;2.67;;
23714;SDS011;12036;50.858;4.472;2023-02-24T13:01:50;10.32;;;2.90;;
23714;SDS011;12036;50.858;4.472;2023-02-24T13:14:39;11.15;;;2.90;;
23714;SDS011;12036;50.858;4.472;2023-02-24T13:19:36;12.75;;;3.10;;
23714;SDS011;12036;50.858;4.472;2023-02-24T13:24:29;9.40;;;3.08;;
23714;SDS011;12036;50.858;4.472;2023-02-24T13:29:41;10.25;;;2.72;;
23714;SDS011;12036;50.858;4.472;2023-02-24T13:35:03;5.78;;;3.08;;
23714;SDS011;12036;50.858;4.472;2023-02-24T13:37:32;12.90;;;3.40;;
23714;SDS011;12036;50.858;4.472;2023-02-24T13:42:43;8.25;;;3.58;;
23714;SDS011;12036;50.858;4.472;2023-02-24T13:45:20;10.10;;;3.40;;
23714;SDS011;12036;50.858;4.472;2023-02-24T13:51:11;7.20;;;3.15;;
23714;SDS011;12036;50.858;4.472;2023-02-24T14:01:19;7.88;;;3.92;;
23714;SDS011;12036;50.858;4.472;2023-02-24T14:04:05;11.60;;;4.43;;
23714;SDS011;12036;50.858;4.472;2023-02-24T14:06:39;12.32;;;4.68;;
23714;SDS011;12036;50.858;4.472;2023-02-24T14:09:11;8.20;;;4.22;;
23714;SDS011;12036;50.858;4.472;2023-02-24T14:11:41;14.75;;;5.25;;
23714;SDS011;12036;50.858;4.472;2023-02-24T14:14:11;11.38;;;5.63;;
23714;SDS011;12036;50.858;4.472;2023-02-24T14:16:42;15.30;;;5.18;;
23714;SDS011;12036;50.858;4.472;2023-02-24T14:19:13;13.30;;;5.50;;
23714;SDS011;12036;50.858;4.472;2023-02-24T14:22:16;12.65;;;5.00;;
23714;SDS011;12036;50.858;4.472;2023-02-24T14:24:41;9.60;;;5.43;;
23714;SDS011;12036;50.858;4.472;2023-02-24T14:27:07;12.38;;;6.43;;
23714;SDS011;12036;50.858;4.472;2023-02-24T14:29:49;11.77;;;5.45;;
23714;SDS011;12036;50.858;4.472;2023-02-24T14:32:20;11.68;;;5.75;;
23714;SDS011;12036;50.858;4.472;2023-02-24T14:34:48;15.15;;;6.15;;
23714;SDS011;12036;50.858;4.472;2023-02-24T14:37:22;8.68;;;4.90;;
23714;SDS011;12036;50.858;4.472;2023-02-24T14:39:59;14.38;;;6.05;;
23714;SDS011;12036;50.858;4.472;2023-02-24T14:42:29;10.35;;;5.20;;
23714;SDS011;12036;50.858;4.472;2023-02-24T14:44:56;9.73;;;5.50;;
23714;SDS011;12036;50.858;4.472;2023-02-24T14:47:24;7.82;;;5.43;;
23714;SDS011;12036;50.858;4.472;2023-02-24T14:49:56;12.90;;;6.35;;
23714;SDS011;12036;50.858;4.472;2023-02-24T14:55:11;11.70;;;5.65;;
23714;SDS011;12036;50.858;4.472;2023-02-24T15:00:32;15.35;;;7.03;;
23714;SDS011;12036;50.858;4.472;2023-02-24T15:05:43;15.02;;;7.38;;
23714;SDS011;12036;50.858;4.472;2023-02-24T15:08:17;15.23;;;6.85;;
23714;SDS011;12036;50.858;4.472;2023-02-24T15:10:55;14.40;;;7.00;;
23714;SDS011;12036;50.858;4.472;2023-02-24T15:16:01;13.07;;;6.82;;
23714;SDS011;12036;50.858;4.472;2023-02-24T15:18:32;13.65;;;6.82;;
23714;SDS011;12036;50.858;4.472;2023-02-24T15:21:02;11.50;;;6.57;;
23714;SDS011;12036;50.858;4.472;2023-02-24T15:23:31;14.82;;;6.57;;
23714;SDS011;12036;50.858;4.472;2023-02-24T15:25:59;12.15;;;6.47;;
23714;SDS011;12036;50.858;4.472;2023-02-24T15:28:29;9.38;;;6.32;;
23714;SDS011;12036;50.858;4.472;2023-02-24T15:33:24;11.30;;;6.95;;
23714;SDS011;12036;50.858;4.472;2023-02-24T15:35:57;12.43;;;6.65;;
23714;SDS011;12036;50.858;4.472;2023-02-24T15:38:24;14.07;;;7.57;;
23714;SDS011;12036;50.858;4.472;2023-02-24T15:40:56;13.48;;;7.50;;
23714;SDS011;12036;50.858;4.472;2023-02-24T15:43:31;14.23;;;8.35;;
23714;SDS011;12036;50.858;4.472;2023-02-24T15:46:11;15.90;;;8.43;;
23714;SDS011;12036;50.858;4.472;2023-02-24T15:48:57;13.52;;;8.90;;
23714;SDS011;12036;50.858;4.472;2023-02-24T15:54:29;16.02;;;8.70;;
23714;SDS011;12036;50.858;4.472;2023-02-24T15:56:59;16.23;;;8.82;;
23714;SDS011;12036;50.858;4.472;2023-02-24T15:59:27;15.30;;;8.70;;
23714;SDS011;12036;50.858;4.472;2023-02-24T16:01:53;18.13;;;9.23;;
23714;SDS011;12036;50.858;4.472;2023-02-24T16:04:20;21.25;;;10.27;;
23714;SDS011;12036;50.858;4.472;2023-02-24T16:06:47;17.58;;;10.35;;
23714;SDS011;12036;50.858;4.472;2023-02-24T16:09:34;21.00;;;11.32;;
23714;SDS011;12036;50.858;4.472;2023-02-24T16:12:04;20.58;;;11.32;;
23714;SDS011;12036;50.858;4.472;2023-02-24T16:14:34;19.95;;;11.65;;
23714;SDS011;12036;50.858;4.472;2023-02-24T16:17:01;18.05;;;12.10;;
23714;SDS011;12036;50.858;4.472;2023-02-24T16:19:29;22.75;;;12.82;;
23714;SDS011;12036;50.858;4.472;2023-02-24T16:21:54;23.35;;;11.98;;
23714;SDS011;12036;50.858;4.472;2023-02-24T16:24:20;23.70;;;11.88;;
23714;SDS011;12036;50.858;4.472;2023-02-24T16:26:46;23.83;;;11.80;;
23714;SDS011;12036;50.858;4.472;2023-02-24T16:29:12;21.17;;;12.75;;
23714;SDS011;12036;50.858;4.472;2023-02-24T16:31:39;20.85;;;12.60;;
23714;SDS011;12036;50.858;4.472;2023-02-24T16:34:05;22.15;;;12.77;;
23714;SDS011;12036;50.858;4.472;2023-02-24T16:36:31;19.77;;;12.48;;
23714;SDS011;12036;50.858;4.472;2023-02-24T16:38:57;20.52;;;12.18;;
23714;SDS011;12036;50.858;4.472;2023-02-24T16:41:25;20.45;;;12.38;;
23714;SDS011;12036;50.858;4.472;2023-02-24T16:43:50;19.30;;;11.80;;
23714;SDS011;12036;50.858;4.472;2023-02-24T16:46:17;23.50;;;12.23;;
23714;SDS011;12036;50.858;4.472;2023-02-24T16:48:48;21.85;;;11.15;;
23714;SDS011;12036;50.858;4.472;2023-02-24T16:51:16;20.30;;;11.77;;
23714;SDS011;12036;50.858;4.472;2023-02-24T16:53:43;24.55;;;12.68;;
23714;SDS011;12036;50.858;4.472;2023-02-24T16:56:09;25.73;;;11.52;;
23714;SDS011;12036;50.858;4.472;2023-02-24T16:58:37;22.25;;;11.80;;
23714;SDS011;12036;50.858;4.472;2023-02-24T17:01:03;21.77;;;10.95;;
23714;SDS011;12036;50.858;4.472;2023-02-24T17:06:11;21.45;;;11.35;;
23714;SDS011;12036;50.858;4.472;2023-02-24T17:08:37;23.50;;;10.60;;
23714;SDS011;12036;50.858;4.472;2023-02-24T17:11:02;25.02;;;9.88;;
23714;SDS011;12036;50.858;4.472;2023-02-24T17:13:28;17.95;;;10.32;;
23714;SDS011;12036;50.858;4.472;2023-02-24T17:15:54;22.35;;;9.75;;
23714;SDS011;12036;50.858;4.472;2023-02-24T17:18:23;23.55;;;9.90;;
23714;SDS011;12036;50.858;4.472;2023-02-24T17:20:50;20.40;;;10.15;;
23714;SDS011;12036;50.858;4.472;2023-02-24T17:23:16;19.27;;;9.75;;
23714;SDS011;12036;50.858;4.472;2023-02-24T17:25:42;17.02;;;8.75;;
23714;SDS011;12036;50.858;4.472;2023-02-24T17:28:10;22.83;;;8.15;;
23714;SDS011;12036;50.858;4.472;2023-02-24T17:30:36;18.20;;;7.70;;
23714;SDS011;12036;50.858;4.472;2023-02-24T17:33:03;22.50;;;8.05;;
23714;SDS011;12036;50.858;4.472;2023-02-24T17:35:28;15.23;;;7.88;;
23714;SDS011;12036;50.858;4.472;2023-02-24T17:37:54;21.95;;;8.48;;
23714;SDS011;12036;50.858;4.472;2023-02-24T17:40:20;25.25;;;7.75;;
23714;SDS011;12036;50.858;4.472;2023-02-24T17:42:46;20.45;;;8.05;;
23714;SDS011;12036;50.858;4.472;2023-02-24T17:45:12;19.80;;;6.65;;
23714;SDS011;12036;50.858;4.472;2023-02-24T17:47:38;27.27;;;6.82;;
23714;SDS011;12036;50.858;4.472;2023-02-24T17:50:05;18.27;;;5.97;;
23714;SDS011;12036;50.858;4.472;2023-02-24T17:52:33;21.83;;;6.20;;
23714;SDS011;12036;50.858;4.472;2023-02-24T17:54:58;22.60;;;5.32;;
23714;SDS011;12036;50.858;4.472;2023-02-24T17:57:24;18.58;;;5.03;;